sensor_id;sensor_type;location;lat;lon;timestamp;pressure;altitude;pressure_sealevel;temperature;humidity
41947;BME280;27638;42.184;24.848;2023-04-22T00:00:03;99613.63;;;14.28;100.00
41947;BME280;27638;42.184;24.848;2023-04-22T00:02:28;99606.94;;;14.17;100.00
41947;BME280;27638;42.184;24.848;2023-04-22T00:04:54;99608.34;;;14.13;100.00
41947;BME280;27638;42.184;24.848;2023-04-22T00:07:21;99605.22;;;14.10;100.00
41947;BME280;27638;42.184;24.848;2023-04-22T00:09:47;99611.19;;;14.12;100.00
41947;BME280;27638;42.184;24.848;2023-04-22T00:12:12;99589.06;;;14.11;100.00
41947;BME280;27638;42.184;24.848;2023-04-22T00:14:38;99596.22;;;14.11;100.00
41947;BME280;27638;42.184;24.848;2023-04-22T00:17:03;99589.06;;;14.11;100.00
41947;BME280;27638;42.184;24.848;2023-04-22T00:19:31;99595.28;;;14.18;100.00
41947;BME280;27638;42.184;24.848;2023-04-22T00:21:56;99600.69;;;14.25;100.00
41947;BME280;27638;42.184;24.848;2023-04-22T00:24:21;99599.47;;;14.27;100.00
41947;BME280;27638;42.184;24.848;2023-04-22T00:26:47;99600.13;;;14.29;100.00
41947;BME280;27638;42.184;24.848;2023-04-22T00:29:12;99592.13;;;14.29;100.00
41947;BME280;27638;42.184;24.848;2023-04-22T00:31:38;99594.97;;;14.28;100.00
41947;BME280;27638;42.184;24.848;2023-04-22T00:34:03;99594.03;;;14.14;100.00
41947;BME280;27638;42.184;24.848;2023-04-22T00:36:28;99594.97;;;14.06;100.00
41947;BME280;27638;42.184;24.848;2023-04-22T00:38:55;99599.00;;;14.02;100.00
41947;BME280;27638;42.184;24.848;2023-04-22T00:41:21;99596.53;;;14.01;100.00
41947;BME280;27638;42.184;24.848;2023-04-22T00:43:46;99600.69;;;13.89;100.00
41947;BME280;27638;42.184;24.848;2023-04-22T00:46:14;99599.59;;;13.83;100.00
41947;BME280;27638;42.184;24.848;2023-04-22T00:48:40;99598.69;;;13.91;100.00
41947;BME280;27638;42.184;24.848;2023-04-22T00:51:06;99598.03;;;13.89;100.00
41947;BME280;27638;42.184;24.848;2023-04-22T00:53:32;99599.19;;;14.01;100.00
41947;BME280;27638;42.184;24.848;2023-04-22T00:55:58;99609.28;;;14.05;100.00
41947;BME280;27638;42.184;24.848;2023-04-22T00:58:27;99601.75;;;14.09;100.00
41947;BME280;27638;42.184;24.848;2023-04-22T01:00:53;99610.75;;;14.08;100.00
41947;BME280;27638;42.184;24.848;2023-04-22T01:03:19;99613.78;;;14.05;100.00
41947;BME280;27638;42.184;24.848;2023-04-22T01:05:47;99617.72;;;14.09;100.00
41947;BME280;27638;42.184;24.848;2023-04-22T01:08:13;99615.69;;;14.11;100.00
41947;BME280;27638;42.184;24.848;2023-04-22T01:10:39;99614.69;;;14.12;100.00
41947;BME280;27638;42.184;24.848;2023-04-22T01:13:05;99607.59;;;14.19;100.00
41947;BME280;27638;42.184;24.848;2023-04-22T01:15:31;99608.59;;;14.18;100.00
41947;BME280;27638;42.184;24.848;2023-04-22T01:17:56;99601.28;;;14.05;100.00
41947;BME280;27638;42.184;24.848;2023-04-22T01:20:23;99604.97;;;14.04;100.00
41947;BME280;27638;42.184;24.848;2023-04-22T01:22:54;99596.16;;;14.04;100.00
41947;BME280;27638;42.184;24.848;2023-04-22T01:25:22;99603.97;;;14.05;100.00
41947;BME280;27638;42.184;24.848;2023-04-22T01:27:48;99608.09;;;14.08;100.00
41947;BME280;27638;42.184;24.848;2023-04-22T01:30:14;99602.75;;;14.08;100.00
41947;BME280;27638;42.184;24.848;2023-04-22T01:32:40;99596.66;;;13.93;100.00
41947;BME280;27638;42.184;24.848;2023-04-22T01:35:06;99600.06;;;13.87;100.00
41947;BME280;27638;42.184;24.848;2023-04-22T01:37:31;99599.75;;;13.96;100.00
41947;BME280;27638;42.184;24.848;2023-04-22T01:39:57;99601.59;;;13.96;100.00
41947;BME280;27638;42.184;24.848;2023-04-22T01:42:23;99599.56;;;13.98;100.00
41947;BME280;27638;42.184;24.848;2023-04-22T01:44:49;99598.38;;;14.00;100.00
41947;BME280;27638;42.184;24.848;2023-04-22T01:47:15;99605.16;;;14.03;100.00
41947;BME280;27638;42.184;24.848;2023-04-22T01:49:40;99598.78;;;13.83;100.00
41947;BME280;27638;42.184;24.848;2023-04-22T01:52:05;99603.94;;;13.25;100.00
41947;BME280;27638;42.184;24.848;2023-04-22T01:54:31;99596.75;;;12.73;100.00
41947;BME280;27638;42.184;24.848;2023-04-22T01:56:57;99594.59;;;12.54;100.00
41947;BME280;27638;42.184;24.848;2023-04-22T01:59:22;99593.56;;;12.32;100.00
41947;BME280;27638;42.184;24.848;2023-04-22T02:01:48;99601.75;;;12.54;100.00
41947;BME280;27638;42.184;24.848;2023-04-22T02:04:13;99593.31;;;12.50;100.00
41947;BME280;27638;42.184;24.848;2023-04-22T02:06:39;99588.28;;;12.55;100.00
41947;BME280;27638;42.184;24.848;2023-04-22T02:09:05;99588.31;;;12.70;100.00
41947;BME280;27638;42.184;24.848;2023-04-22T02:11:30;99590.97;;;12.70;100.00
41947;BME280;27638;42.184;24.848;2023-04-22T02:13:56;99588.91;;;12.80;100.00
41947;BME280;27638;42.184;24.848;2023-04-22T02:16:21;99584.16;;;12.90;100.00
41947;BME280;27638;42.184;24.848;2023-04-22T02:18:46;99583.56;;;12.80;100.00
41947;BME280;27638;42.184;24.848;2023-04-22T02:21:12;99574.88;;;12.86;100.00
41947;BME280;27638;42.184;24.848;2023-04-22T02:23:38;99590.50;;;13.04;100.00
41947;BME280;27638;42.184;24.848;2023-04-22T02:26:04;99590.59;;;13.10;100.00
41947;BME280;27638;42.184;24.848;2023-04-22T02:28:30;99595.22;;;13.17;100.00
41947;BME280;27638;42.184;24.848;2023-04-22T02:30:56;99589.81;;;13.25;100.00
41947;BME280;27638;42.184;24.848;2023-04-22T02:33:21;99598.59;;;13.25;100.00
41947;BME280;27638;42.184;24.848;2023-04-22T02:35:47;99595.94;;;13.25;100.00
41947;BME280;27638;42.184;24.848;2023-04-22T02:38:12;99594.75;;;13.28;100.00
41947;BME280;27638;42.184;24.848;2023-04-22T02:40:38;99603.56;;;13.28;100.00
41947;BME280;27638;42.184;24.848;2023-04-22T02:43:03;99600.25;;;13.26;100.00
41947;BME280;27638;42.184;24.848;2023-04-22T02:45:29;99608.50;;;13.31;100.00
41947;BME280;27638;42.184;24.848;2023-04-22T02:47:54;99607.41;;;13.26;100.00
41947;BME280;27638;42.184;24.848;2023-04-22T02:50:20;99608.59;;;13.23;100.00
41947;BME280;27638;42.184;24.848;2023-04-22T02:52:45;99597.97;;;13.23;100.00
41947;BME280;27638;42.184;24.848;2023-04-22T02:55:11;99611.53;;;13.28;100.00
41947;BME280;27638;42.184;24.848;2023-04-22T02:57:36;99607.78;;;13.23;100.00
41947;BME280;27638;42.184;24.848;2023-04-22T03:00:02;99611.22;;;13.08;100.00
41947;BME280;27638;42.184;24.848;2023-04-22T03:02:28;99601.88;;;13.13;100.00
41947;BME280;27638;42.184;24.848;2023-04-22T03:04:54;99607.78;;;13.23;100.00
41947;BME280;27638;42.184;24.848;2023-04-22T03:07:19;99609.25;;;13.25;100.00
41947;BME280;27638;42.184;24.848;2023-04-22T03:09:45;99613.72;;;13.25;100.00
41947;BME280;27638;42.184;24.848;2023-04-22T03:12:10;99609.44;;;13.24;100.00
41947;BME280;27638;42.184;24.848;2023-04-22T03:14:36;99608.78;;;13.22;100.00
41947;BME280;27638;42.184;24.848;2023-04-22T03:17:01;99605.13;;;13.23;100.00
41947;BME280;27638;42.184;24.848;2023-04-22T03:19:26;99603.28;;;13.23;100.00
41947;BME280;27638;42.184;24.848;2023-04-22T03:21:52;99602.28;;;13.24;100.00
41947;BME280;27638;42.184;24.848;2023-04-22T03:24:17;99601.25;;;13.25;100.00
41947;BME280;27638;42.184;24.848;2023-04-22T03:26:43;99603.69;;;13.12;100.00
41947;BME280;27638;42.184;24.848;2023-04-22T03:29:08;99616.25;;;13.03;100.00
41947;BME280;27638;42.184;24.848;2023-04-22T03:31:34;99614.41;;;13.04;100.00
41947;BME280;27638;42.184;24.848;2023-04-22T03:33:59;99614.22;;;13.05;100.00
41947;BME280;27638;42.184;24.848;2023-04-22T03:36:26;99609.75;;;13.06;100.00
41947;BME280;27638;42.184;24.848;2023-04-22T03:38:51;99623.97;;;13.13;100.00
41947;BME280;27638;42.184;24.848;2023-04-22T03:41:17;99631.84;;;13.06;100.00
41947;BME280;27638;42.184;24.848;2023-04-22T03:43:42;99632.38;;;13.02;100.00
41947;BME280;27638;42.184;24.848;2023-04-22T03:46:08;99636.03;;;13.01;100.00
41947;BME280;27638;42.184;24.848;2023-04-22T03:48:33;99648.03;;;12.97;100.00
41947;BME280;27638;42.184;24.848;2023-04-22T03:51:00;99626.44;;;12.77;100.00
41947;BME280;27638;42.184;24.848;2023-04-22T03:53:26;99630.50;;;12.88;100.00
41947;BME280;27638;42.184;24.848;2023-04-22T03:55:52;99638.94;;;12.91;100.00
41947;BME280;27638;42.184;24.848;2023-04-22T03:58:18;99642.53;;;12.98;100.00
41947;BME280;27638;42.184;24.848;2023-04-22T04:00:43;99654.38;;;12.73;100.00
41947;BME280;27638;42.184;24.848;2023-04-22T04:03:09;99649.34;;;12.78;100.00
41947;BME280;27638;42.184;24.848;2023-04-22T04:05:35;99643.22;;;12.77;100.00
41947;BME280;27638;42.184;24.848;2023-04-22T04:08:00;99649.66;;;12.83;100.00
41947;BME280;27638;42.184;24.848;2023-04-22T04:10:26;99647.22;;;12.96;100.00
41947;BME280;27638;42.184;24.848;2023-04-22T04:12:51;99648.31;;;13.02;100.00
41947;BME280;27638;42.184;24.848;2023-04-22T04:15:17;99649.91;;;13.11;100.00
41947;BME280;27638;42.184;24.848;2023-04-22T04:17:46;99641.75;;;13.13;100.00
41947;BME280;27638;42.184;24.848;2023-04-22T04:20:13;99654.53;;;13.17;100.00
41947;BME280;27638;42.184;24.848;2023-04-22T04:22:38;99652.84;;;13.16;100.00
41947;BME280;27638;42.184;24.848;2023-04-22T04:25:04;99650.22;;;12.93;100.00
41947;BME280;27638;42.184;24.848;2023-04-22T04:27:29;99650.03;;;12.95;100.00
41947;BME280;27638;42.184;24.848;2023-04-22T04:29:55;99652.53;;;12.96;100.00
41947;BME280;27638;42.184;24.848;2023-04-22T04:32:20;99657.75;;;13.27;100.00
41947;BME280;27638;42.184;24.848;2023-04-22T04:34:46;99646.47;;;13.40;100.00
41947;BME280;27638;42.184;24.848;2023-04-22T04:37:12;99665.06;;;13.63;100.00
41947;BME280;27638;42.184;24.848;2023-04-22T04:39:37;99670.91;;;13.73;100.00
41947;BME280;27638;42.184;24.848;2023-04-22T04:42:03;99666.06;;;13.77;100.00
41947;BME280;27638;42.184;24.848;2023-04-22T04:44:28;99673.38;;;13.89;100.00
41947;BME280;27638;42.184;24.848;2023-04-22T04:46:56;99665.75;;;14.01;100.00
41947;BME280;27638;42.184;24.848;2023-04-22T04:49:22;99671.78;;;14.10;100.00
41947;BME280;27638;42.184;24.848;2023-04-22T04:51:47;99685.03;;;13.88;100.00
41947;BME280;27638;42.184;24.848;2023-04-22T04:54:13;99676.34;;;13.65;100.00
41947;BME280;27638;42.184;24.848;2023-04-22T04:56:39;99689.19;;;13.61;100.00
41947;BME280;27638;42.184;24.848;2023-04-22T04:59:04;99690.50;;;13.42;100.00
41947;BME280;27638;42.184;24.848;2023-04-22T05:01:30;99685.53;;;13.25;100.00
41947;BME280;27638;42.184;24.848;2023-04-22T05:03:55;99681.22;;;13.24;100.00
41947;BME280;27638;42.184;24.848;2023-04-22T05:06:21;99689.75;;;13.34;100.00
41947;BME280;27638;42.184;24.848;2023-04-22T05:08:46;99682.44;;;13.36;100.00
41947;BME280;27638;42.184;24.848;2023-04-22T05:11:12;99678.25;;;13.56;100.00
41947;BME280;27638;42.184;24.848;2023-04-22T05:13:37;99679.44;;;13.68;100.00
41947;BME280;27638;42.184;24.848;2023-04-22T05:16:02;99683.31;;;13.81;100.00
41947;BME280;27638;42.184;24.848;2023-04-22T05:18:28;99684.84;;;13.90;100.00
41947;BME280;27638;42.184;24.848;2023-04-22T05:20:53;99686.88;;;13.88;100.00
41947;BME280;27638;42.184;24.848;2023-04-22T05:23:19;99682.91;;;13.98;100.00
41947;BME280;27638;42.184;24.848;2023-04-22T05:25:44;99688.97;;;14.07;100.00
41947;BME280;27638;42.184;24.848;2023-04-22T05:28:10;99676.56;;;14.14;100.00
41947;BME280;27638;42.184;24.848;2023-04-22T05:30:35;99684.91;;;14.26;100.00
41947;BME280;27638;42.184;24.848;2023-04-22T05:33:02;99689.72;;;14.37;100.00
41947;BME280;27638;42.184;24.848;2023-04-22T05:35:27;99687.44;;;14.34;100.00
41947;BME280;27638;42.184;24.848;2023-04-22T05:37:53;99689.66;;;14.30;100.00
41947;BME280;27638;42.184;24.848;2023-04-22T05:40:18;99685.50;;;14.57;100.00
41947;BME280;27638;42.184;24.848;2023-04-22T05:42:44;99690.59;;;14.74;100.00
41947;BME280;27638;42.184;24.848;2023-04-22T05:45:09;99681.44;;;15.04;100.00
41947;BME280;27638;42.184;24.848;2023-04-22T05:47:35;99687.03;;;15.37;98.18
41947;BME280;27638;42.184;24.848;2023-04-22T05:50:01;99695.72;;;15.67;98.07
41947;BME280;27638;42.184;24.848;2023-04-22T05:52:26;99688.28;;;15.97;97.75
41947;BME280;27638;42.184;24.848;2023-04-22T05:54:51;99685.88;;;16.15;95.70
41947;BME280;27638;42.184;24.848;2023-04-22T05:57:17;99694.81;;;16.42;93.28
41947;BME280;27638;42.184;24.848;2023-04-22T05:59:42;99694.66;;;16.64;92.57
41947;BME280;27638;42.184;24.848;2023-04-22T06:02:08;99685.28;;;16.74;91.59
41947;BME280;27638;42.184;24.848;2023-04-22T06:04:33;99686.56;;;16.91;90.67
41947;BME280;27638;42.184;24.848;2023-04-22T06:06:59;99687.38;;;16.92;90.90
41947;BME280;27638;42.184;24.848;2023-04-22T06:09:24;99697.88;;;16.94;92.13
41947;BME280;27638;42.184;24.848;2023-04-22T06:11:49;99691.50;;;17.21;92.36
41947;BME280;27638;42.184;24.848;2023-04-22T06:14:15;99694.16;;;17.41;91.10
41947;BME280;27638;42.184;24.848;2023-04-22T06:16:40;99697.25;;;17.51;89.83
41947;BME280;27638;42.184;24.848;2023-04-22T06:19:06;99692.91;;;17.56;89.75
41947;BME280;27638;42.184;24.848;2023-04-22T06:21:31;99691.47;;;17.67;88.61
41947;BME280;27638;42.184;24.848;2023-04-22T06:23:58;99691.03;;;17.64;89.09
41947;BME280;27638;42.184;24.848;2023-04-22T06:26:24;99688.56;;;17.89;90.42
41947;BME280;27638;42.184;24.848;2023-04-22T06:28:50;99683.34;;;18.07;87.84
41947;BME280;27638;42.184;24.848;2023-04-22T06:31:15;99691.31;;;18.27;86.54
41947;BME280;27638;42.184;24.848;2023-04-22T06:33:41;99691.03;;;18.41;86.58
41947;BME280;27638;42.184;24.848;2023-04-22T06:36:06;99683.16;;;18.46;84.64
41947;BME280;27638;42.184;24.848;2023-04-22T06:38:32;99686.41;;;18.62;83.91
41947;BME280;27638;42.184;24.848;2023-04-22T06:40:57;99687.41;;;18.74;82.53
41947;BME280;27638;42.184;24.848;2023-04-22T06:43:23;99690.78;;;18.94;81.61
41947;BME280;27638;42.184;24.848;2023-04-22T06:45:48;99690.22;;;18.86;80.57
41947;BME280;27638;42.184;24.848;2023-04-22T06:48:13;99681.34;;;18.85;80.17
41947;BME280;27638;42.184;24.848;2023-04-22T06:50:39;99689.72;;;18.95;81.96
41947;BME280;27638;42.184;24.848;2023-04-22T06:53:04;99687.19;;;18.69;83.68
41947;BME280;27638;42.184;24.848;2023-04-22T06:55:30;99685.28;;;18.83;82.39
41947;BME280;27638;42.184;24.848;2023-04-22T06:57:55;99689.56;;;18.90;79.58
41947;BME280;27638;42.184;24.848;2023-04-22T07:00:21;99688.19;;;19.06;82.92
41947;BME280;27638;42.184;24.848;2023-04-22T07:02:46;99681.78;;;19.07;81.47
41947;BME280;27638;42.184;24.848;2023-04-22T07:05:11;99685.53;;;19.06;81.70
41947;BME280;27638;42.184;24.848;2023-04-22T07:07:37;99686.84;;;19.22;79.43
41947;BME280;27638;42.184;24.848;2023-04-22T07:10:03;99691.75;;;19.50;80.50
41947;BME280;27638;42.184;24.848;2023-04-22T07:12:28;99697.72;;;19.76;78.99
41947;BME280;27638;42.184;24.848;2023-04-22T07:14:54;99700.91;;;19.67;77.11
41947;BME280;27638;42.184;24.848;2023-04-22T07:17:20;99701.28;;;19.70;77.49
41947;BME280;27638;42.184;24.848;2023-04-22T07:19:47;99699.41;;;19.53;79.81
41947;BME280;27638;42.184;24.848;2023-04-22T07:22:13;99704.31;;;19.81;78.49
41947;BME280;27638;42.184;24.848;2023-04-22T07:24:38;99698.34;;;19.97;77.21
41947;BME280;27638;42.184;24.848;2023-04-22T07:27:05;99703.66;;;19.60;74.21
41947;BME280;27638;42.184;24.848;2023-04-22T07:29:31;99705.13;;;19.81;74.32
41947;BME280;27638;42.184;24.848;2023-04-22T07:31:56;99701.88;;;19.72;74.66
41947;BME280;27638;42.184;24.848;2023-04-22T07:34:21;99695.22;;;20.00;73.71
41947;BME280;27638;42.184;24.848;2023-04-22T07:36:49;99699.44;;;20.26;71.96
41947;BME280;27638;42.184;24.848;2023-04-22T07:39:15;99702.59;;;20.41;73.40
41947;BME280;27638;42.184;24.848;2023-04-22T07:41:41;99696.53;;;20.27;71.24
41947;BME280;27638;42.184;24.848;2023-04-22T07:44:06;99705.78;;;19.76;73.66
41947;BME280;27638;42.184;24.848;2023-04-22T07:46:33;99708.13;;;19.91;72.83
41947;BME280;27638;42.184;24.848;2023-04-22T07:48:58;99696.47;;;19.97;74.89
41947;BME280;27638;42.184;24.848;2023-04-22T07:51:24;99700.13;;;20.03;72.98
41947;BME280;27638;42.184;24.848;2023-04-22T07:53:50;99701.72;;;19.67;75.12
41947;BME280;27638;42.184;24.848;2023-04-22T07:56:15;99703.66;;;19.60;74.36
41947;BME280;27638;42.184;24.848;2023-04-22T07:58:40;99700.81;;;19.80;74.20
41947;BME280;27638;42.184;24.848;2023-04-22T08:01:06;99695.06;;;19.95;73.27
41947;BME280;27638;42.184;24.848;2023-04-22T08:03:31;99690.13;;;19.92;74.85
41947;BME280;27638;42.184;24.848;2023-04-22T08:05:57;99689.16;;;19.86;72.92
41947;BME280;27638;42.184;24.848;2023-04-22T08:08:23;99685.13;;;20.14;72.16
41947;BME280;27638;42.184;24.848;2023-04-22T08:10:48;99689.75;;;19.88;73.48
41947;BME280;27638;42.184;24.848;2023-04-22T08:13:14;99684.00;;;20.03;74.78
41947;BME280;27638;42.184;24.848;2023-04-22T08:15:39;99691.00;;;20.22;73.56
41947;BME280;27638;42.184;24.848;2023-04-22T08:18:05;99686.97;;;20.31;73.35
41947;BME280;27638;42.184;24.848;2023-04-22T08:20:30;99683.25;;;20.62;71.50
41947;BME280;27638;42.184;24.848;2023-04-22T08:22:55;99681.34;;;20.33;73.53
41947;BME280;27638;42.184;24.848;2023-04-22T08:25:25;99685.72;;;20.16;74.41
41947;BME280;27638;42.184;24.848;2023-04-22T08:27:50;99676.66;;;20.47;72.46
41947;BME280;27638;42.184;24.848;2023-04-22T08:30:16;99670.13;;;20.54;72.43
41947;BME280;27638;42.184;24.848;2023-04-22T08:32:42;99669.31;;;20.35;71.50
41947;BME280;27638;42.184;24.848;2023-04-22T08:35:08;99669.50;;;20.22;70.99
41947;BME280;27638;42.184;24.848;2023-04-22T08:37:33;99656.47;;;19.89;76.43
41947;BME280;27638;42.184;24.848;2023-04-22T08:39:59;99660.50;;;19.80;73.51
41947;BME280;27638;42.184;24.848;2023-04-22T08:42:26;99654.69;;;19.83;75.11
41947;BME280;27638;42.184;24.848;2023-04-22T08:44:52;99655.84;;;19.44;71.96
41947;BME280;27638;42.184;24.848;2023-04-22T08:47:19;99647.88;;;19.81;72.12
41947;BME280;27638;42.184;24.848;2023-04-22T08:49:45;99652.88;;;19.77;73.39
41947;BME280;27638;42.184;24.848;2023-04-22T08:52:11;99656.53;;;19.83;72.99
41947;BME280;27638;42.184;24.848;2023-04-22T08:54:39;99649.19;;;19.71;70.31
41947;BME280;27638;42.184;24.848;2023-04-22T08:57:06;99654.16;;;19.93;71.05
41947;BME280;27638;42.184;24.848;2023-04-22T08:59:34;99653.53;;;19.72;71.75
41947;BME280;27638;42.184;24.848;2023-04-22T09:02:01;99648.25;;;20.02;71.97
41947;BME280;27638;42.184;24.848;2023-04-22T09:04:27;99639.28;;;20.38;69.72
41947;BME280;27638;42.184;24.848;2023-04-22T09:06:53;99632.78;;;20.46;73.16
41947;BME280;27638;42.184;24.848;2023-04-22T09:09:19;99630.50;;;20.31;72.63
41947;BME280;27638;42.184;24.848;2023-04-22T09:11:45;99621.47;;;20.26;76.04
41947;BME280;27638;42.184;24.848;2023-04-22T09:14:10;99624.53;;;20.29;75.62
41947;BME280;27638;42.184;24.848;2023-04-22T09:16:40;99625.44;;;20.23;72.45
41947;BME280;27638;42.184;24.848;2023-04-22T09:19:10;99612.91;;;20.17;74.54
41947;BME280;27638;42.184;24.848;2023-04-22T09:21:36;99612.34;;;19.79;72.81
41947;BME280;27638;42.184;24.848;2023-04-22T09:24:02;99609.94;;;19.52;72.96
41947;BME280;27638;42.184;24.848;2023-04-22T09:26:27;99613.41;;;19.34;70.77
41947;BME280;27638;42.184;24.848;2023-04-22T09:28:56;99611.22;;;19.25;70.38
41947;BME280;27638;42.184;24.848;2023-04-22T09:31:28;99614.25;;;19.10;69.39
41947;BME280;27638;42.184;24.848;2023-04-22T09:33:56;99614.50;;;18.84;74.89
41947;BME280;27638;42.184;24.848;2023-04-22T09:36:25;99610.53;;;18.55;74.16
41947;BME280;27638;42.184;24.848;2023-04-22T09:39:01;99607.09;;;18.79;69.62
41947;BME280;27638;42.184;24.848;2023-04-22T09:41:38;99610.72;;;18.91;69.88
41947;BME280;27638;42.184;24.848;2023-04-22T09:44:08;99598.22;;;19.03;71.79
41947;BME280;27638;42.184;24.848;2023-04-22T09:46:34;99600.53;;;19.00;70.89
41947;BME280;27638;42.184;24.848;2023-04-22T09:49:00;99597.03;;;18.99;77.59
41947;BME280;27638;42.184;24.848;2023-04-22T09:51:26;99596.63;;;18.96;73.78
41947;BME280;27638;42.184;24.848;2023-04-22T09:54:00;99585.91;;;18.96;76.56
41947;BME280;27638;42.184;24.848;2023-04-22T09:56:49;99584.69;;;18.92;72.85
41947;BME280;27638;42.184;24.848;2023-04-22T09:59:25;99572.06;;;18.74;73.42
41947;BME280;27638;42.184;24.848;2023-04-22T10:01:55;99576.19;;;18.70;74.48
41947;BME280;27638;42.184;24.848;2023-04-22T10:04:21;99574.34;;;18.39;73.88
41947;BME280;27638;42.184;24.848;2023-04-22T10:06:49;99565.88;;;18.73;80.02
41947;BME280;27638;42.184;24.848;2023-04-22T10:09:19;99581.34;;;18.71;80.47
41947;BME280;27638;42.184;24.848;2023-04-22T10:11:45;99564.94;;;18.55;77.01
41947;BME280;27638;42.184;24.848;2023-04-22T10:14:11;99581.59;;;18.63;73.50
41947;BME280;27638;42.184;24.848;2023-04-22T10:16:39;99585.94;;;18.64;78.54
41947;BME280;27638;42.184;24.848;2023-04-22T10:19:06;99580.00;;;18.87;76.16
41947;BME280;27638;42.184;24.848;2023-04-22T10:21:35;99572.88;;;18.99;76.31
41947;BME280;27638;42.184;24.848;2023-04-22T10:24:02;99575.72;;;19.04;74.95
41947;BME280;27638;42.184;24.848;2023-04-22T10:29:07;99580.97;;;18.93;76.11
41947;BME280;27638;42.184;24.848;2023-04-22T10:31:38;99578.09;;;18.94;73.93
41947;BME280;27638;42.184;24.848;2023-04-22T10:34:14;99573.78;;;18.62;76.77
41947;BME280;27638;42.184;24.848;2023-04-22T10:37:00;99590.03;;;18.73;74.47
41947;BME280;27638;42.184;24.848;2023-04-22T10:39:29;99586.78;;;18.90;76.73
41947;BME280;27638;42.184;24.848;2023-04-22T10:42:14;99579.63;;;18.84;73.35
41947;BME280;27638;42.184;24.848;2023-04-22T10:44:54;99583.59;;;18.99;76.70
41947;BME280;27638;42.184;24.848;2023-04-22T10:47:42;99581.69;;;19.06;76.68
41947;BME280;27638;42.184;24.848;2023-04-22T10:50:24;99580.69;;;19.01;74.89
41947;BME280;27638;42.184;24.848;2023-04-22T10:52:57;99583.03;;;19.16;70.60
41947;BME280;27638;42.184;24.848;2023-04-22T10:55:24;99594.81;;;19.14;72.54
41947;BME280;27638;42.184;24.848;2023-04-22T10:57:51;99587.66;;;19.08;68.82
41947;BME280;27638;42.184;24.848;2023-04-22T11:00:53;99593.78;;;18.91;73.49
41947;BME280;27638;42.184;24.848;2023-04-22T11:03:17;99646.91;;;18.82;74.01
41947;BME280;27638;42.184;24.848;2023-04-22T11:05:43;99610.66;;;17.97;69.70
41947;BME280;27638;42.184;24.848;2023-04-22T11:08:19;99620.66;;;17.70;74.57
41947;BME280;27638;42.184;24.848;2023-04-22T11:10:49;99630.72;;;17.54;74.98
41947;BME280;27638;42.184;24.848;2023-04-22T11:13:19;99633.81;;;17.51;77.57
41947;BME280;27638;42.184;24.848;2023-04-22T11:15:49;99645.97;;;17.41;74.57
41947;BME280;27638;42.184;24.848;2023-04-22T11:18:20;99625.59;;;17.46;76.38
41947;BME280;27638;42.184;24.848;2023-04-22T11:20:46;99636.50;;;17.45;73.94
41947;BME280;27638;42.184;24.848;2023-04-22T11:23:24;99647.81;;;17.47;73.51
41947;BME280;27638;42.184;24.848;2023-04-22T11:25:58;99653.38;;;17.45;71.66
41947;BME280;27638;42.184;24.848;2023-04-22T11:28:25;99653.00;;;17.09;72.40
41947;BME280;27638;42.184;24.848;2023-04-22T11:30:50;99650.97;;;16.91;71.81
41947;BME280;27638;42.184;24.848;2023-04-22T11:33:18;99653.00;;;16.76;70.31
41947;BME280;27638;42.184;24.848;2023-04-22T11:35:44;99672.13;;;16.79;72.08
41947;BME280;27638;42.184;24.848;2023-04-22T11:38:10;99672.16;;;16.86;74.57
41947;BME280;27638;42.184;24.848;2023-04-22T11:40:45;99680.38;;;16.98;75.00
41947;BME280;27638;42.184;24.848;2023-04-22T11:43:10;99660.63;;;16.99;74.82
41947;BME280;27638;42.184;24.848;2023-04-22T11:45:37;99680.38;;;16.91;72.91
41947;BME280;27638;42.184;24.848;2023-04-22T11:48:05;99671.84;;;16.61;73.24
41947;BME280;27638;42.184;24.848;2023-04-22T11:50:33;99663.59;;;16.49;76.91
41947;BME280;27638;42.184;24.848;2023-04-22T11:53:03;99666.44;;;16.35;73.59
41947;BME280;27638;42.184;24.848;2023-04-22T11:55:33;99668.28;;;16.34;76.62
41947;BME280;27638;42.184;24.848;2023-04-22T11:58:03;99663.13;;;16.26;77.71
41947;BME280;27638;42.184;24.848;2023-04-22T12:00:31;99671.78;;;16.35;82.26
41947;BME280;27638;42.184;24.848;2023-04-22T12:03:04;99658.06;;;16.57;84.92
41947;BME280;27638;42.184;24.848;2023-04-22T12:05:58;99662.97;;;16.47;83.51
41947;BME280;27638;42.184;24.848;2023-04-22T12:08:29;99678.38;;;16.45;81.42
41947;BME280;27638;42.184;24.848;2023-04-22T12:10:57;99656.19;;;16.45;78.88
41947;BME280;27638;42.184;24.848;2023-04-22T12:13:24;99673.66;;;16.41;76.28
41947;BME280;27638;42.184;24.848;2023-04-22T12:15:54;99680.34;;;16.17;78.32
41947;BME280;27638;42.184;24.848;2023-04-22T12:18:34;99685.47;;;16.12;78.52
41947;BME280;27638;42.184;24.848;2023-04-22T12:23:29;99677.16;;;15.93;80.18
41947;BME280;27638;42.184;24.848;2023-04-22T12:25:54;99673.63;;;15.86;80.81
41947;BME280;27638;42.184;24.848;2023-04-22T12:28:20;99673.75;;;15.72;86.41
41947;BME280;27638;42.184;24.848;2023-04-22T12:30:45;99666.22;;;15.54;91.77
41947;BME280;27638;42.184;24.848;2023-04-22T12:33:10;99669.22;;;15.44;95.72
41947;BME280;27638;42.184;24.848;2023-04-22T12:35:36;99667.28;;;15.31;96.52
41947;BME280;27638;42.184;24.848;2023-04-22T12:38:01;99678.78;;;15.32;95.73
41947;BME280;27638;42.184;24.848;2023-04-22T12:40:27;99663.84;;;15.10;99.38
41947;BME280;27638;42.184;24.848;2023-04-22T12:42:53;99674.22;;;14.98;100.00
41947;BME280;27638;42.184;24.848;2023-04-22T12:45:18;99668.25;;;14.96;100.00
41947;BME280;27638;42.184;24.848;2023-04-22T12:47:44;99659.03;;;14.98;100.00